Flight Track Log - Related Links

Times and Time Zones

All times are in EDT time to prevent confusion due to time zone crossing. See the RPA4886 flight status page for this flight to view local times or setup timezone preferences in your user account.

Time Position Orientation Groundspeed Altitude Reporting Facility
EDT Latitude Longitude Course Direction KTS MPH feet Rate Location/Type
Wed 09:14:36 PM 42.6900 -73.8158 188° South 188 216 3,100  Level Boston Center
Wed 09:16:00 PM 42.7334 -74.1675 270° West  Level FlightAware Approximate
Wed 09:16:03 PM 42.6869 -73.9089 267° West 238 274 6,200  Level Boston Center
Wed 09:17:00 PM 42.7333 -74.2900 270° West  Level FlightAware Approximate
Wed 09:17:03 PM 42.7022 -74.0167 281° West 238 274 8,600  Level Boston Center
Wed 09:18:00 PM 42.6758 -74.3794 220° Southwest  Level FlightAware Approximate
Wed 09:18:03 PM 42.6964 -74.1208 266° West 244 281 11,200  Level Boston Center
Wed 09:19:00 PM 42.6065 -74.4574 220° Southwest  Level FlightAware Approximate
Wed 09:19:03 PM 42.6578 -74.1933 234° Southwest 260 299 13,000  Level Boston Center
Wed 09:20:03 PM 42.6064 -74.2850 233° Southwest 286 329 14,700 1,450 Climbing Boston Center
Wed 09:21:03 PM 42.5675 -74.3683 238° Southwest 286 329 15,900 650 Climbing Boston Center
Wed 09:22:03 PM 42.5094 -74.4736 233° Southwest 306 352 16,000 50 Climbing Boston Center
Wed 09:23:03 PM 42.4597 -74.5706 235° Southwest 341 392 16,000  Level Boston Center
Wed 09:24:03 PM 42.3947 -74.6892 233° Southwest 357 411 16,000  Level Boston Center
Wed 09:25:03 PM 42.3450 -74.7858 235° Southwest 357 411 16,000 -50 Level Boston Center
Wed 09:26:03 PM 42.2883 -74.8986 236° Southwest 357 411 15,900  Descending Boston Center
Wed 09:28:05 PM 42.1750 -75.1081 234° Southwest 356 410 16,000 33 Climbing New York Center
Wed 09:29:05 PM 42.1172 -75.2106 233° Southwest 351 404 16,000  Level New York Center
Wed 09:30:06 PM 42.0608 -75.3269 237° Southwest 351 404 16,000  Level New York Center
Wed 09:31:06 PM 42.0086 -75.4350 237° Southwest 345 397 16,000  Level New York Center
Wed 09:32:04 PM 41.9567 -75.5372 236° Southwest 340 391 16,000 50 Level New York Center
Wed 09:33:05 PM 41.9114 -75.6286 236° Southwest 335 386 16,100 49 Climbing New York Center
Wed 09:34:07 PM 41.8547 -75.7386 235° Southwest 335 386 16,100 -49 Level New York Center
Wed 09:35:07 PM 41.8158 -75.8247 239° Southwest 335 386 16,000 -51 Descending New York Center
Wed 09:36:05 PM 41.7906 -75.9258 251° West 304 350 16,000  Level New York Center
Wed 09:37:06 PM 41.7667 -76.0436 255° West 295 339 16,000  Level New York Center
Wed 09:38:06 PM 41.7450 -76.1558 256° West 306 352 16,000  Level New York Center
Wed 09:39:04 PM 41.7217 -76.2542 252° West 311 358 16,000  Level New York Center
Wed 09:40:06 PM 41.6939 -76.3628 251° West 316 364 16,000  Level New York Center
Wed 09:41:07 PM 41.6189 -76.4508 221° Southwest 318 366 16,000  Level New York Center
Wed 09:42:07 PM 41.5503 -76.5311 221° Southwest 324 373 16,000  Level New York Center
Wed 09:43:07 PM 41.4800 -76.6081 219° Southwest 330 380 16,000  Level New York Center
Wed 09:44:04 PM 41.4111 -76.6933 223° Southwest 330 380 16,000  Level New York Center
Wed 09:45:05 PM 41.3428 -76.7675 219° Southwest 330 380 16,000  Level New York Center
Wed 09:46:06 PM 41.2561 -76.7958 194° South 317 365 16,000  Level New York Center
Wed 09:47:06 PM 41.1678 -76.8128 188° South 317 365 16,000  Level New York Center
Wed 09:48:07 PM 41.0794 -76.8269 187° South 322 371 16,000  Level New York Center
Wed 09:49:05 PM 40.9911 -76.8436 188° South 322 371 16,000  Level New York Center
Wed 09:50:04 PM 40.9025 -76.8633 190° South 322 371 16,000  Level New York Center
Wed 09:51:07 PM 40.8161 -76.8803 188° South 317 365 16,000  Level New York Center
Wed 09:52:05 PM 40.7317 -76.9028 191° South 317 365 16,000  Level New York Center
Wed 09:53:07 PM 40.6617 -76.9267 195° South 323 372 16,000  Level New York Center
Wed 09:54:07 PM 40.5619 -76.9589 194° South 323 372 16,000  Level New York Center
Wed 09:55:04 PM 40.4731 -76.9836 192° South 323 372 16,000  Level New York Center
Wed 09:56:04 PM 40.3864 -77.0086 192° South 323 372 16,000  Level New York Center
Wed 09:57:06 PM 40.3014 -77.0389 195° South 328 377 16,000  Level New York Center
Wed 09:58:05 PM 40.2125 -77.0636 192° South 328 377 16,000 -250 Level New York Center
Wed 09:59:06 PM 40.1319 -77.0889 193° South 328 377 15,500 -689 Descending New York Center
Wed 10:00:07 PM 40.0344 -77.1181 193° South 328 377 14,600 -880 Descending New York Center
Wed 10:02:10 PM 39.8500 -77.1667 191° South 321 369 12,800 -885 Descending Potomac TRACON
Wed 10:03:10 PM 39.7833 -77.2333 218° Southwest 319 367 11,900 -857 Descending Potomac TRACON
Wed 10:04:16 PM 39.7000 -77.2667 197° South 314 361 11,000 -857 Descending Potomac TRACON
Wed 10:05:16 PM 39.6167 -77.3000 197° South 300 345 10,100 -900 Descending Potomac TRACON
Wed 10:06:16 PM 39.5333 -77.3333 197° South 280 322 9,200 -900 Descending Potomac TRACON
Wed 10:07:16 PM 39.4667 -77.3833 210° Southwest 274 315 8,300 -1,000 Descending Potomac TRACON
Wed 10:08:10 PM 39.4167 -77.4333 218° Southwest 275 316 7,300 -950 Descending Potomac TRACON
Wed 10:09:16 PM 39.3500 -77.4667 201° Southwest 245 282 6,400 -857 Descending Potomac TRACON
Wed 10:10:16 PM 39.2833 -77.4667 180° South 230 265 5,500 -947 Descending Potomac TRACON
Wed 10:11:10 PM 39.2333 -77.4500 166° South 209 241 4,600 -700 Descending Potomac TRACON
Wed 10:12:16 PM 39.1833 -77.4500 180° South 194 223 4,100 -600 Descending Potomac TRACON
Wed 10:13:10 PM 39.1333 -77.4500 180° South 185 213 3,400 -778 Descending Potomac TRACON

Login

Don't have an account? Register now (free) for customized features, flight alerts, and more!